Terminal Aerodrome Forecast
Issued by NWS Caribou, ME

Home | Current Version | Previous Version | Text Only | Print | Product List | Glossary On
Versions: 1 2 3 4 5 6 7 8 9 10 11 12 13 14 15
000
FTUS41 KCAR 251730
TAFBGR
TAF
KBGR 251730Z 2518/2618 23009G16KT P6SM VCSH SCT015 BKN028
     FM251900 25015G25KT P6SM BKN040
     FM260500 27010G18KT P6SM SCT045=

USA.gov is the U.S. government's official web portal to all federal, state and local government web resources and services.